METAR Data
IDs: Format: Raw Decoded Include TAF

Data at: 2054 UTC 25 Oct 2021

ELLX 252020Z 26009KT 9999 FEW006 BKN015 10/09 Q1020 NOSIG